sensor_id;sensor_type;location;lat;lon;timestamp;pressure;altitude;pressure_sealevel;temperature;humidity
43711;BME280;29309;42.682;23.372;2023-02-28T00:02:24;95660.28;;;6.43;98.34
43711;BME280;29309;42.682;23.372;2023-02-28T00:04:49;95657.94;;;6.50;98.92
43711;BME280;29309;42.682;23.372;2023-02-28T00:07:18;95672.03;;;6.54;98.35
43711;BME280;29309;42.682;23.372;2023-02-28T00:09:43;95678.84;;;6.53;98.54
43711;BME280;29309;42.682;23.372;2023-02-28T00:12:08;95677.09;;;6.48;98.77
43711;BME280;29309;42.682;23.372;2023-02-28T00:14:38;95660.69;;;6.50;98.18
43711;BME280;29309;42.682;23.372;2023-02-28T00:17:03;95672.88;;;6.56;98.65
43711;BME280;29309;42.682;23.372;2023-02-28T00:19:29;95677.84;;;6.58;98.68
43711;BME280;29309;42.682;23.372;2023-02-28T00:21:54;95679.56;;;6.63;98.55
43711;BME280;29309;42.682;23.372;2023-02-28T00:24:19;95677.84;;;6.58;98.52
43711;BME280;29309;42.682;23.372;2023-02-28T00:26:44;95685.81;;;6.63;98.41
43711;BME280;29309;42.682;23.372;2023-02-28T00:29:10;95697.72;;;6.56;97.73
43711;BME280;29309;42.682;23.372;2023-02-28T00:31:35;95686.81;;;6.49;97.91
43711;BME280;29309;42.682;23.372;2023-02-28T00:34:00;95682.19;;;6.61;97.54
43711;BME280;29309;42.682;23.372;2023-02-28T00:36:26;95694.09;;;6.54;97.59
43711;BME280;29309;42.682;23.372;2023-02-28T00:38:51;95690.16;;;6.57;97.89
43711;BME280;29309;42.682;23.372;2023-02-28T00:41:17;95684.66;;;6.66;96.94
43711;BME280;29309;42.682;23.372;2023-02-28T00:43:42;95698.31;;;6.64;97.25
43711;BME280;29309;42.682;23.372;2023-02-28T00:46:08;95686.09;;;6.67;97.39
43711;BME280;29309;42.682;23.372;2023-02-28T00:48:33;95671.75;;;6.69;96.31
43711;BME280;29309;42.682;23.372;2023-02-28T00:50:59;95667.09;;;6.62;96.86
43711;BME280;29309;42.682;23.372;2023-02-28T00:53:24;95666.22;;;6.69;96.32
43711;BME280;29309;42.682;23.372;2023-02-28T00:55:50;95651.13;;;6.60;95.93
43711;BME280;29309;42.682;23.372;2023-02-28T00:58:15;95667.25;;;6.54;96.44
43711;BME280;29309;42.682;23.372;2023-02-28T01:00:41;95672.75;;;6.54;96.36
43711;BME280;29309;42.682;23.372;2023-02-28T01:03:06;95672.31;;;6.58;96.10
43711;BME280;29309;42.682;23.372;2023-02-28T01:05:31;95692.94;;;6.57;95.83
43711;BME280;29309;42.682;23.372;2023-02-28T01:07:57;95689.59;;;6.58;96.24
43711;BME280;29309;42.682;23.372;2023-02-28T01:10:22;95677.09;;;6.57;96.00
43711;BME280;29309;42.682;23.372;2023-02-28T01:12:47;95671.44;;;6.55;95.50
43711;BME280;29309;42.682;23.372;2023-02-28T01:15:13;95670.84;;;6.57;95.88
43711;BME280;29309;42.682;23.372;2023-02-28T01:17:38;95673.63;;;6.57;95.29
43711;BME280;29309;42.682;23.372;2023-02-28T01:20:03;95672.44;;;6.60;95.59
43711;BME280;29309;42.682;23.372;2023-02-28T01:22:29;95666.81;;;6.58;94.93
43711;BME280;29309;42.682;23.372;2023-02-28T01:24:54;95666.50;;;6.54;94.99
43711;BME280;29309;42.682;23.372;2023-02-28T01:27:19;95662.28;;;6.53;95.24
43711;BME280;29309;42.682;23.372;2023-02-28T01:29:45;95667.81;;;6.53;95.23
43711;BME280;29309;42.682;23.372;2023-02-28T01:32:10;95666.50;;;6.54;95.41
43711;BME280;29309;42.682;23.372;2023-02-28T01:34:35;95655.47;;;6.54;94.58
43711;BME280;29309;42.682;23.372;2023-02-28T01:37:01;95655.19;;;6.50;94.80
43711;BME280;29309;42.682;23.372;2023-02-28T01:39:26;95663.47;;;6.50;95.41
43711;BME280;29309;42.682;23.372;2023-02-28T01:41:51;95657.78;;;6.48;94.92
43711;BME280;29309;42.682;23.372;2023-02-28T01:47:01;95663.28;;;6.48;95.38
43711;BME280;29309;42.682;23.372;2023-02-28T01:49:26;95676.22;;;6.45;94.82
43711;BME280;29309;42.682;23.372;2023-02-28T01:51:52;95673.75;;;6.49;95.33
43711;BME280;29309;42.682;23.372;2023-02-28T01:54:27;95674.63;;;6.42;95.15
43711;BME280;29309;42.682;23.372;2023-02-28T01:56:59;95677.25;;;6.40;95.03
43711;BME280;29309;42.682;23.372;2023-02-28T02:01:57;95672.88;;;6.37;95.55
43711;BME280;29309;42.682;23.372;2023-02-28T02:04:23;95663.91;;;6.36;95.44
43711;BME280;29309;42.682;23.372;2023-02-28T02:06:51;95669.84;;;6.33;95.23
43711;BME280;29309;42.682;23.372;2023-02-28T02:09:16;95678.38;;;6.37;95.06
43711;BME280;29309;42.682;23.372;2023-02-28T02:11:42;95673.16;;;6.31;94.85
43711;BME280;29309;42.682;23.372;2023-02-28T02:14:30;95673.72;;;6.30;95.25
43711;BME280;29309;42.682;23.372;2023-02-28T02:22:12;95660.84;;;6.32;95.33
43711;BME280;29309;42.682;23.372;2023-02-28T02:32:44;95666.91;;;6.21;96.34
43711;BME280;29309;42.682;23.372;2023-02-28T02:35:31;95673.00;;;6.20;96.10
43711;BME280;29309;42.682;23.372;2023-02-28T02:38:08;95665.75;;;6.15;96.22
43711;BME280;29309;42.682;23.372;2023-02-28T02:43:22;95671.09;;;6.13;96.63
43711;BME280;29309;42.682;23.372;2023-02-28T02:46:02;95687.81;;;6.15;96.87
43711;BME280;29309;42.682;23.372;2023-02-28T02:48:31;95687.81;;;6.15;97.00
43711;BME280;29309;42.682;23.372;2023-02-28T02:50:59;95687.63;;;6.13;96.67
43711;BME280;29309;42.682;23.372;2023-02-28T02:53:30;95681.56;;;6.14;96.70
43711;BME280;29309;42.682;23.372;2023-02-28T02:55:58;95682.56;;;6.19;96.60
43711;BME280;29309;42.682;23.372;2023-02-28T02:58:25;95686.06;;;6.19;97.42
43711;BME280;29309;42.682;23.372;2023-02-28T03:00:53;95684.47;;;6.26;96.69
43711;BME280;29309;42.682;23.372;2023-02-28T03:03:20;95692.16;;;6.27;97.19
43711;BME280;29309;42.682;23.372;2023-02-28T03:05:54;95699.13;;;6.28;97.36
43711;BME280;29309;42.682;23.372;2023-02-28T03:08:20;95705.53;;;6.31;96.95
43711;BME280;29309;42.682;23.372;2023-02-28T03:10:46;95712.63;;;6.34;97.26
43711;BME280;29309;42.682;23.372;2023-02-28T03:13:24;95706.56;;;6.35;96.93
43711;BME280;29309;42.682;23.372;2023-02-28T03:16:13;95718.75;;;6.32;96.67
43711;BME280;29309;42.682;23.372;2023-02-28T03:23:34;95719.19;;;6.38;96.51
43711;BME280;29309;42.682;23.372;2023-02-28T03:26:04;95725.44;;;6.39;96.58
43711;BME280;29309;42.682;23.372;2023-02-28T03:36:27;95735.09;;;6.21;95.75
43711;BME280;29309;42.682;23.372;2023-02-28T03:39:28;95740.63;;;6.21;96.25
43711;BME280;29309;42.682;23.372;2023-02-28T03:41:46;95741.66;;;6.25;96.38
43711;BME280;29309;42.682;23.372;2023-02-28T03:44:36;95738.00;;;6.23;96.55
43711;BME280;29309;42.682;23.372;2023-02-28T03:47:08;95732.06;;;6.26;97.15
43711;BME280;29309;42.682;23.372;2023-02-28T03:49:39;95741.06;;;6.27;96.43
43711;BME280;29309;42.682;23.372;2023-02-28T03:52:08;95743.25;;;6.28;97.00
43711;BME280;29309;42.682;23.372;2023-02-28T03:54:41;95741.94;;;6.29;96.43
43711;BME280;29309;42.682;23.372;2023-02-28T03:57:53;95739.34;;;6.31;96.31
43711;BME280;29309;42.682;23.372;2023-02-28T04:00:03;95745.16;;;6.35;96.61
43711;BME280;29309;42.682;23.372;2023-02-28T04:02:31;95741.25;;;6.38;97.06
43711;BME280;29309;42.682;23.372;2023-02-28T04:04:56;95747.91;;;6.35;96.49
43711;BME280;29309;42.682;23.372;2023-02-28T04:07:22;95748.47;;;6.34;97.05
43711;BME280;29309;42.682;23.372;2023-02-28T04:09:47;95747.59;;;6.31;96.55
43711;BME280;29309;42.682;23.372;2023-02-28T04:12:12;95742.66;;;6.30;97.02
43711;BME280;29309;42.682;23.372;2023-02-28T04:14:37;95734.56;;;6.32;96.78
43711;BME280;29309;42.682;23.372;2023-02-28T04:17:03;95744.84;;;6.31;97.25
43711;BME280;29309;42.682;23.372;2023-02-28T04:19:28;95751.09;;;6.32;97.36
43711;BME280;29309;42.682;23.372;2023-02-28T04:21:53;95742.78;;;6.22;97.29
43711;BME280;29309;42.682;23.372;2023-02-28T04:24:23;95738.97;;;6.08;97.74
43711;BME280;29309;42.682;23.372;2023-02-28T04:26:49;95742.31;;;6.07;98.41
43711;BME280;29309;42.682;23.372;2023-02-28T04:29:22;95742.44;;;5.99;98.53
43711;BME280;29309;42.682;23.372;2023-02-28T04:34:32;95748.81;;;6.02;98.31
43711;BME280;29309;42.682;23.372;2023-02-28T04:36:57;95746.50;;;5.98;98.33
43711;BME280;29309;42.682;23.372;2023-02-28T04:39:23;95752.28;;;5.92;98.17
43711;BME280;29309;42.682;23.372;2023-02-28T04:41:49;95749.78;;;5.87;97.86
43711;BME280;29309;42.682;23.372;2023-02-28T04:44:15;95754.56;;;5.86;97.94
43711;BME280;29309;42.682;23.372;2023-02-28T04:46:41;95764.28;;;5.87;98.24
43711;BME280;29309;42.682;23.372;2023-02-28T04:49:06;95761.72;;;5.72;98.42
43711;BME280;29309;42.682;23.372;2023-02-28T04:51:31;95767.66;;;5.69;98.60
43711;BME280;29309;42.682;23.372;2023-02-28T04:53:57;95772.28;;;5.66;98.67
43711;BME280;29309;42.682;23.372;2023-02-28T04:56:22;95773.31;;;5.71;98.90
43711;BME280;29309;42.682;23.372;2023-02-28T04:58:47;95772.91;;;5.74;98.98
43711;BME280;29309;42.682;23.372;2023-02-28T05:01:18;95766.63;;;5.64;99.37
43711;BME280;29309;42.682;23.372;2023-02-28T05:03:43;95761.81;;;5.65;99.39
43711;BME280;29309;42.682;23.372;2023-02-28T05:06:09;95767.50;;;5.67;99.57
43711;BME280;29309;42.682;23.372;2023-02-28T05:08:35;95762.31;;;5.71;100.00
43711;BME280;29309;42.682;23.372;2023-02-28T05:11:00;95767.97;;;5.73;99.67
43711;BME280;29309;42.682;23.372;2023-02-28T05:13:26;95768.84;;;5.75;100.00
43711;BME280;29309;42.682;23.372;2023-02-28T05:15:52;95772.50;;;5.78;100.00
43711;BME280;29309;42.682;23.372;2023-02-28T05:18:17;95776.44;;;5.84;99.34
43711;BME280;29309;42.682;23.372;2023-02-28T05:20:42;95774.22;;;5.83;99.41
43711;BME280;29309;42.682;23.372;2023-02-28T05:23:08;95779.75;;;5.83;99.28
43711;BME280;29309;42.682;23.372;2023-02-28T05:25:34;95786.72;;;5.84;99.00
43711;BME280;29309;42.682;23.372;2023-02-28T05:27:59;95780.91;;;5.80;98.66
43711;BME280;29309;42.682;23.372;2023-02-28T05:30:25;95787.00;;;5.78;98.98
43711;BME280;29309;42.682;23.372;2023-02-28T05:32:50;95785.69;;;5.79;98.60
43711;BME280;29309;42.682;23.372;2023-02-28T05:35:16;95792.44;;;5.86;98.88
43711;BME280;29309;42.682;23.372;2023-02-28T05:37:41;95799.19;;;5.85;98.71
43711;BME280;29309;42.682;23.372;2023-02-28T05:40:07;95794.59;;;5.87;98.93
43711;BME280;29309;42.682;23.372;2023-02-28T05:42:36;95796.94;;;5.91;98.73
43711;BME280;29309;42.682;23.372;2023-02-28T05:45:02;95802.91;;;5.97;98.72
43711;BME280;29309;42.682;23.372;2023-02-28T05:47:27;95803.06;;;5.99;98.49
43711;BME280;29309;42.682;23.372;2023-02-28T05:49:53;95803.63;;;5.98;98.38
43711;BME280;29309;42.682;23.372;2023-02-28T05:52:18;95808.56;;;5.99;98.05
43711;BME280;29309;42.682;23.372;2023-02-28T05:54:43;95811.47;;;6.01;98.44
43711;BME280;29309;42.682;23.372;2023-02-28T05:57:08;95822.66;;;6.03;98.12
43711;BME280;29309;42.682;23.372;2023-02-28T05:59:34;95818.75;;;6.06;98.08
43711;BME280;29309;42.682;23.372;2023-02-28T06:01:59;95816.16;;;6.08;98.19
43711;BME280;29309;42.682;23.372;2023-02-28T06:04:24;95821.66;;;6.08;98.29
43711;BME280;29309;42.682;23.372;2023-02-28T06:06:50;95813.56;;;6.10;98.02
43711;BME280;29309;42.682;23.372;2023-02-28T06:09:16;95810.53;;;6.16;98.24
43711;BME280;29309;42.682;23.372;2023-02-28T06:11:41;95813.44;;;6.18;97.34
43711;BME280;29309;42.682;23.372;2023-02-28T06:14:07;95804.59;;;6.19;97.84
43711;BME280;29309;42.682;23.372;2023-02-28T06:16:33;95815.94;;;6.23;97.30
43711;BME280;29309;42.682;23.372;2023-02-28T06:18:59;95807.09;;;6.25;96.75
43711;BME280;29309;42.682;23.372;2023-02-28T06:21:25;95805.19;;;6.27;96.46
43711;BME280;29309;42.682;23.372;2023-02-28T06:23:52;95816.97;;;6.28;96.83
43711;BME280;29309;42.682;23.372;2023-02-28T06:26:17;95812.00;;;6.26;96.35
43711;BME280;29309;42.682;23.372;2023-02-28T06:28:43;95815.94;;;6.23;96.40
43711;BME280;29309;42.682;23.372;2023-02-28T06:31:08;95810.41;;;6.23;96.37
43711;BME280;29309;42.682;23.372;2023-02-28T06:33:34;95821.13;;;6.19;96.29
43711;BME280;29309;42.682;23.372;2023-02-28T06:36:00;95823.75;;;6.17;95.79
43711;BME280;29309;42.682;23.372;2023-02-28T06:38:25;95827.66;;;6.14;95.86
43711;BME280;29309;42.682;23.372;2023-02-28T06:40:57;95819.75;;;6.01;95.99
43711;BME280;29309;42.682;23.372;2023-02-28T06:43:23;95829.16;;;5.98;96.21
43711;BME280;29309;42.682;23.372;2023-02-28T06:45:48;95830.34;;;6.05;96.82
43711;BME280;29309;42.682;23.372;2023-02-28T06:48:14;95820.66;;;6.04;97.13
43711;BME280;29309;42.682;23.372;2023-02-28T06:50:39;95832.13;;;6.10;96.97
43711;BME280;29309;42.682;23.372;2023-02-28T06:53:04;95831.56;;;6.11;96.88
43711;BME280;29309;42.682;23.372;2023-02-28T06:55:30;95831.56;;;6.11;96.31
43711;BME280;29309;42.682;23.372;2023-02-28T06:57:55;95829.22;;;6.08;95.93
43711;BME280;29309;42.682;23.372;2023-02-28T07:00:20;95835.44;;;6.08;96.36
43711;BME280;29309;42.682;23.372;2023-02-28T07:02:46;95833.16;;;6.14;96.67
43711;BME280;29309;42.682;23.372;2023-02-28T07:05:12;95839.97;;;6.13;96.66
43711;BME280;29309;42.682;23.372;2023-02-28T07:07:37;95830.25;;;6.12;96.79
43711;BME280;29309;42.682;23.372;2023-02-28T07:10:05;95841.44;;;6.14;96.67
43711;BME280;29309;42.682;23.372;2023-02-28T07:12:31;95827.66;;;6.14;96.40
43711;BME280;29309;42.682;23.372;2023-02-28T07:14:56;95837.78;;;6.12;96.70
43711;BME280;29309;42.682;23.372;2023-02-28T07:17:21;95830.97;;;6.13;96.70
43711;BME280;29309;42.682;23.372;2023-02-28T07:19:47;95826.22;;;6.23;97.30
43711;BME280;29309;42.682;23.372;2023-02-28T07:22:12;95826.09;;;6.30;97.00
43711;BME280;29309;42.682;23.372;2023-02-28T07:24:37;95828.63;;;6.36;97.29
43711;BME280;29309;42.682;23.372;2023-02-28T07:27:03;95831.94;;;6.44;97.28
43711;BME280;29309;42.682;23.372;2023-02-28T07:29:28;95833.72;;;6.49;96.59
43711;BME280;29309;42.682;23.372;2023-02-28T07:31:54;95838.69;;;6.51;96.23
43711;BME280;29309;42.682;23.372;2023-02-28T07:34:19;95840.53;;;6.48;96.08
43711;BME280;29309;42.682;23.372;2023-02-28T07:36:44;95830.72;;;6.55;96.07
43711;BME280;29309;42.682;23.372;2023-02-28T07:39:10;95828.97;;;6.59;95.47
43711;BME280;29309;42.682;23.372;2023-02-28T07:41:35;95820.97;;;6.54;95.10
43711;BME280;29309;42.682;23.372;2023-02-28T07:44:04;95832.59;;;6.62;94.91
43711;BME280;29309;42.682;23.372;2023-02-28T07:46:29;95827.38;;;6.66;95.63
43711;BME280;29309;42.682;23.372;2023-02-28T07:49:00;95833.50;;;6.74;96.10
43711;BME280;29309;42.682;23.372;2023-02-28T07:51:26;95827.28;;;6.83;95.96
43711;BME280;29309;42.682;23.372;2023-02-28T07:53:51;95826.56;;;6.92;95.74
43711;BME280;29309;42.682;23.372;2023-02-28T07:56:16;95826.59;;;7.02;96.03
43711;BME280;29309;42.682;23.372;2023-02-28T07:58:41;95828.03;;;7.12;96.31
43711;BME280;29309;42.682;23.372;2023-02-28T08:01:07;95823.25;;;7.22;95.94
43711;BME280;29309;42.682;23.372;2023-02-28T08:03:33;95824.69;;;7.33;95.32
43711;BME280;29309;42.682;23.372;2023-02-28T08:05:58;95821.91;;;7.42;95.56
43711;BME280;29309;42.682;23.372;2023-02-28T08:08:24;95820.75;;;7.55;95.16
43711;BME280;29309;42.682;23.372;2023-02-28T08:10:57;95824.06;;;7.63;94.85
43711;BME280;29309;42.682;23.372;2023-02-28T08:13:22;95821.16;;;7.71;93.82
43711;BME280;29309;42.682;23.372;2023-02-28T08:15:48;95821.72;;;7.79;93.38
43711;BME280;29309;42.682;23.372;2023-02-28T08:18:13;95821.28;;;7.92;93.27
43711;BME280;29309;42.682;23.372;2023-02-28T08:20:38;95821.06;;;8.09;93.30
43711;BME280;29309;42.682;23.372;2023-02-28T08:23:03;95821.03;;;8.19;93.08
43711;BME280;29309;42.682;23.372;2023-02-28T08:25:29;95824.38;;;8.27;93.02
43711;BME280;29309;42.682;23.372;2023-02-28T08:27:54;95822.63;;;8.31;92.71
43711;BME280;29309;42.682;23.372;2023-02-28T08:30:19;95827.66;;;8.45;92.81
43711;BME280;29309;42.682;23.372;2023-02-28T08:32:45;95821.88;;;8.62;92.93
43711;BME280;29309;42.682;23.372;2023-02-28T08:35:10;95829.25;;;8.78;92.72
43711;BME280;29309;42.682;23.372;2023-02-28T08:37:35;95824.91;;;8.97;92.30
43711;BME280;29309;42.682;23.372;2023-02-28T08:40:01;95819.28;;;9.06;91.88
43711;BME280;29309;42.682;23.372;2023-02-28T08:42:26;95819.22;;;9.16;91.56
43711;BME280;29309;42.682;23.372;2023-02-28T08:44:51;95823.88;;;9.34;91.28
43711;BME280;29309;42.682;23.372;2023-02-28T08:47:17;95831.06;;;9.49;91.10
43711;BME280;29309;42.682;23.372;2023-02-28T08:49:42;95818.66;;;9.50;90.32
43711;BME280;29309;42.682;23.372;2023-02-28T08:52:07;95817.34;;;9.51;90.29
43711;BME280;29309;42.682;23.372;2023-02-28T08:54:33;95815.31;;;9.63;90.90
43711;BME280;29309;42.682;23.372;2023-02-28T08:56:59;95829.69;;;9.71;90.30
43711;BME280;29309;42.682;23.372;2023-02-28T08:59:24;95829.50;;;9.79;90.24
43711;BME280;29309;42.682;23.372;2023-02-28T09:01:50;95824.44;;;9.87;89.93
43711;BME280;29309;42.682;23.372;2023-02-28T09:04:15;95827.94;;;9.87;89.30
43711;BME280;29309;42.682;23.372;2023-02-28T09:06:40;95821.53;;;9.85;88.60
43711;BME280;29309;42.682;23.372;2023-02-28T09:09:06;95837.19;;;9.80;86.88
43711;BME280;29309;42.682;23.372;2023-02-28T09:11:32;95826.25;;;9.82;86.68
43711;BME280;29309;42.682;23.372;2023-02-28T09:13:58;95826.75;;;9.91;86.45
43711;BME280;29309;42.682;23.372;2023-02-28T09:16:25;95827.72;;;9.95;86.03
43711;BME280;29309;42.682;23.372;2023-02-28T09:18:50;95818.78;;;9.97;86.12
43711;BME280;29309;42.682;23.372;2023-02-28T09:21:16;95821.84;;;10.12;85.77
43711;BME280;29309;42.682;23.372;2023-02-28T09:23:43;95831.03;;;10.15;84.67
43711;BME280;29309;42.682;23.372;2023-02-28T09:26:12;95818.44;;;10.02;85.16
43711;BME280;29309;42.682;23.372;2023-02-28T09:28:38;95829.41;;;10.00;85.19
43711;BME280;29309;42.682;23.372;2023-02-28T09:31:03;95819.72;;;10.22;85.28
43711;BME280;29309;42.682;23.372;2023-02-28T09:33:29;95814.19;;;10.34;84.04
43711;BME280;29309;42.682;23.372;2023-02-28T09:35:58;95817.06;;;10.48;82.59
43711;BME280;29309;42.682;23.372;2023-02-28T09:38:25;95821.06;;;10.45;81.98
43711;BME280;29309;42.682;23.372;2023-02-28T09:40:50;95829.25;;;10.31;82.81
43711;BME280;29309;42.682;23.372;2023-02-28T09:43:17;95821.84;;;10.12;83.32
43711;BME280;29309;42.682;23.372;2023-02-28T09:45:46;95827.06;;;10.18;83.65
43711;BME280;29309;42.682;23.372;2023-02-28T09:48:23;95816.97;;;10.34;82.89
43711;BME280;29309;42.682;23.372;2023-02-28T09:51:00;95808.63;;;10.57;82.21
43711;BME280;29309;42.682;23.372;2023-02-28T09:53:28;95816.81;;;10.78;81.13
43711;BME280;29309;42.682;23.372;2023-02-28T09:55:59;95816.44;;;10.84;80.37
43711;BME280;29309;42.682;23.372;2023-02-28T09:58:28;95816.78;;;10.90;78.64
43711;BME280;29309;42.682;23.372;2023-02-28T10:00:59;95819.34;;;10.86;79.52
43711;BME280;29309;42.682;23.372;2023-02-28T10:06:19;95817.03;;;10.94;78.08
43711;BME280;29309;42.682;23.372;2023-02-28T10:11:20;95804.84;;;10.99;78.60
43711;BME280;29309;42.682;23.372;2023-02-28T10:16:25;95806.78;;;11.33;76.41
43711;BME280;29309;42.682;23.372;2023-02-28T10:18:54;95798.91;;;11.42;76.08
43711;BME280;29309;42.682;23.372;2023-02-28T10:21:35;95799.00;;;11.44;75.77
43711;BME280;29309;42.682;23.372;2023-02-28T10:24:14;95810.50;;;11.50;74.28
43711;BME280;29309;42.682;23.372;2023-02-28T10:26:41;95799.97;;;11.48;74.31
43711;BME280;29309;42.682;23.372;2023-02-28T10:29:09;95788.75;;;11.46;73.51
43711;BME280;29309;42.682;23.372;2023-02-28T10:31:35;95803.25;;;11.45;74.05
43711;BME280;29309;42.682;23.372;2023-02-28T10:34:00;95785.38;;;11.36;74.22
43711;BME280;29309;42.682;23.372;2023-02-28T10:36:26;95788.38;;;11.40;74.43
43711;BME280;29309;42.682;23.372;2023-02-28T10:38:51;95778.28;;;11.58;73.51
43711;BME280;29309;42.682;23.372;2023-02-28T10:41:26;95768.63;;;11.84;72.76
43711;BME280;29309;42.682;23.372;2023-02-28T10:43:52;95777.94;;;12.03;71.27
43711;BME280;29309;42.682;23.372;2023-02-28T10:46:18;95768.78;;;12.00;71.00
43711;BME280;29309;42.682;23.372;2023-02-28T10:51:24;95767.34;;;12.13;70.48
43711;BME280;29309;42.682;23.372;2023-02-28T10:53:50;95760.75;;;12.20;69.76
43711;BME280;29309;42.682;23.372;2023-02-28T10:56:18;95764.44;;;11.97;70.11
43711;BME280;29309;42.682;23.372;2023-02-28T10:58:57;95755.63;;;11.75;71.54
43711;BME280;29309;42.682;23.372;2023-02-28T11:01:24;95749.66;;;11.56;72.08
43711;BME280;29309;42.682;23.372;2023-02-28T11:03:50;95741.84;;;11.66;73.29
43711;BME280;29309;42.682;23.372;2023-02-28T11:06:20;95757.31;;;11.69;72.08
43711;BME280;29309;42.682;23.372;2023-02-28T11:08:50;95732.75;;;11.77;71.61
43711;BME280;29309;42.682;23.372;2023-02-28T11:11:17;95745.84;;;11.88;70.97
43711;BME280;29309;42.682;23.372;2023-02-28T11:13:42;95745.47;;;11.94;70.79
43711;BME280;29309;42.682;23.372;2023-02-28T11:16:10;95733.41;;;12.03;70.07
43711;BME280;29309;42.682;23.372;2023-02-28T11:18:43;95735.69;;;12.20;69.56
43711;BME280;29309;42.682;23.372;2023-02-28T11:21:15;95733.53;;;12.18;69.47
43711;BME280;29309;42.682;23.372;2023-02-28T11:23:42;95735.59;;;12.18;69.20
43711;BME280;29309;42.682;23.372;2023-02-28T11:26:07;95743.00;;;12.13;70.25
43711;BME280;29309;42.682;23.372;2023-02-28T11:28:40;95720.00;;;11.99;70.25
43711;BME280;29309;42.682;23.372;2023-02-28T11:33:32;95741.22;;;11.93;70.45
43711;BME280;29309;42.682;23.372;2023-02-28T11:36:02;95735.44;;;11.89;70.73
43711;BME280;29309;42.682;23.372;2023-02-28T11:38:28;95730.19;;;11.95;70.57
43711;BME280;29309;42.682;23.372;2023-02-28T11:48:22;95728.97;;;11.33;72.72
43711;BME280;29309;42.682;23.372;2023-02-28T11:53:32;95715.59;;;11.44;72.25
43711;BME280;29309;42.682;23.372;2023-02-28T12:08:26;95711.34;;;11.93;69.55
43711;BME280;29309;42.682;23.372;2023-02-28T12:31:55;95699.88;;;11.87;69.41
43711;BME280;29309;42.682;23.372;2023-02-28T12:34:24;95697.44;;;11.93;69.74
43711;BME280;29309;42.682;23.372;2023-02-28T12:36:53;95701.66;;;11.94;69.96
43711;BME280;29309;42.682;23.372;2023-02-28T12:39:29;95720.53;;;11.70;69.45
43711;BME280;29309;42.682;23.372;2023-02-28T12:41:59;95703.53;;;11.64;69.36
43711;BME280;29309;42.682;23.372;2023-02-28T12:44:37;95701.81;;;11.71;69.94
43711;BME280;29309;42.682;23.372;2023-02-28T12:47:09;95696.13;;;11.69;69.03
43711;BME280;29309;42.682;23.372;2023-02-28T12:49:50;95681.56;;;11.57;68.68
43711;BME280;29309;42.682;23.372;2023-02-28T12:52:25;95696.78;;;11.42;68.84
43711;BME280;29309;42.682;23.372;2023-02-28T13:00:08;95683.03;;;11.32;71.26
43711;BME280;29309;42.682;23.372;2023-02-28T13:10:40;95686.13;;;11.25;71.24
43711;BME280;29309;42.682;23.372;2023-02-28T13:13:06;95681.38;;;11.27;70.77
43711;BME280;29309;42.682;23.372;2023-02-28T13:15:38;95680.56;;;11.25;70.65
43711;BME280;29309;42.682;23.372;2023-02-28T13:18:19;95694.09;;;11.19;70.09
43711;BME280;29309;42.682;23.372;2023-02-28T13:20:50;95681.03;;;11.21;71.47
43711;BME280;29309;42.682;23.372;2023-02-28T13:26:07;95692.00;;;11.31;72.75
43711;BME280;29309;42.682;23.372;2023-02-28T13:31:25;95677.28;;;11.28;71.41
43711;BME280;29309;42.682;23.372;2023-02-28T13:38:46;95679.94;;;11.01;71.62
43711;BME280;29309;42.682;23.372;2023-02-28T13:44:04;95686.47;;;10.94;72.57
43711;BME280;29309;42.682;23.372;2023-02-28T13:46:30;95660.91;;;10.84;72.99
43711;BME280;29309;42.682;23.372;2023-02-28T13:48:55;95669.72;;;10.92;72.68
43711;BME280;29309;42.682;23.372;2023-02-28T13:54:10;95661.97;;;10.91;73.46
43711;BME280;29309;42.682;23.372;2023-02-28T14:07:04;95665.53;;;10.79;72.89
43711;BME280;29309;42.682;23.372;2023-02-28T14:11:55;95668.94;;;10.66;73.08
43711;BME280;29309;42.682;23.372;2023-02-28T14:17:07;95669.44;;;10.63;73.86
43711;BME280;29309;42.682;23.372;2023-02-28T14:19:35;95672.00;;;10.59;74.08
43711;BME280;29309;42.682;23.372;2023-02-28T14:22:09;95677.81;;;10.40;75.18
43711;BME280;29309;42.682;23.372;2023-02-28T14:27:15;95667.47;;;10.17;76.30
43711;BME280;29309;42.682;23.372;2023-02-28T14:37:47;95683.13;;;9.89;78.50
43711;BME280;29309;42.682;23.372;2023-02-28T14:40:32;95677.47;;;9.87;78.52
43711;BME280;29309;42.682;23.372;2023-02-28T14:42:59;95678.91;;;9.88;78.86
43711;BME280;29309;42.682;23.372;2023-02-28T14:45:25;95684.69;;;9.92;78.65
43711;BME280;29309;42.682;23.372;2023-02-28T14:47:51;95676.75;;;9.98;78.75
43711;BME280;29309;42.682;23.372;2023-02-28T14:50:18;95680.22;;;9.99;78.65
43711;BME280;29309;42.682;23.372;2023-02-28T14:52:43;95681.56;;;9.98;78.89
43711;BME280;29309;42.682;23.372;2023-02-28T14:55:13;95676.88;;;10.00;79.62
43711;BME280;29309;42.682;23.372;2023-02-28T14:57:41;95680.38;;;10.12;80.66
43711;BME280;29309;42.682;23.372;2023-02-28T15:00:12;95679.41;;;10.19;79.53
43711;BME280;29309;42.682;23.372;2023-02-28T15:02:38;95679.19;;;10.27;79.47
43711;BME280;29309;42.682;23.372;2023-02-28T15:07:41;95676.88;;;10.23;77.77
43711;BME280;29309;42.682;23.372;2023-02-28T15:12:34;95676.13;;;10.11;77.65
43711;BME280;29309;42.682;23.372;2023-02-28T15:14:59;95669.50;;;10.05;78.15
43711;BME280;29309;42.682;23.372;2023-02-28T15:17:24;95674.44;;;10.06;78.17
43711;BME280;29309;42.682;23.372;2023-02-28T15:19:51;95666.38;;;9.99;78.78
43711;BME280;29309;42.682;23.372;2023-02-28T15:22:17;95672.63;;;9.99;78.82
43711;BME280;29309;42.682;23.372;2023-02-28T15:27:12;95684.34;;;9.86;80.03
43711;BME280;29309;42.682;23.372;2023-02-28T15:29:46;95677.81;;;9.81;80.65
43711;BME280;29309;42.682;23.372;2023-02-28T15:34:51;95696.88;;;9.75;81.52
43711;BME280;29309;42.682;23.372;2023-02-28T15:40:23;95688.91;;;9.70;82.46
43711;BME280;29309;42.682;23.372;2023-02-28T15:42:43;95696.97;;;9.66;81.94